createdAt,value
2018-10-05T14:18:05.433Z,41.40
2018-10-05T14:20:45.243Z,41.20
2018-10-05T14:32:22.810Z,41.50
2018-10-05T14:34:51.428Z,40.80
2018-10-05T14:37:20.710Z,41.60
2018-10-05T14:42:52.062Z,41.30
2018-10-05T14:45:36.189Z,41.60
2018-10-05T14:48:17.511Z,41.60
2018-10-05T14:51:16.061Z,41.80
2018-10-05T14:59:42.923Z,41.90
2018-10-05T15:02:11.682Z,42.00
2018-10-05T15:07:34.227Z,42.10
2018-10-05T15:10:03.824Z,42.20
2018-10-05T15:12:32.401Z,42.40
2018-10-05T15:15:07.603Z,42.50
2018-10-05T15:17:38.305Z,42.70
2018-10-05T15:20:07.992Z,42.90
2018-10-05T15:22:39.984Z,42.80
2018-10-05T15:25:08.669Z,42.90
2018-10-05T15:27:38.861Z,43.00
2018-10-05T15:30:07.801Z,43.30
2018-10-05T15:32:37.259Z,43.40
2018-10-05T15:35:07.442Z,43.50
2018-10-05T15:37:38.042Z,43.80
2018-10-05T15:40:07.714Z,43.80
2018-10-05T15:42:37.125Z,44.00
2018-10-05T15:45:06.212Z,44.20
2018-10-05T15:47:34.849Z,44.30
2018-10-05T15:50:07.325Z,44.50
2018-10-05T15:52:36.019Z,45.00
2018-10-05T15:55:05.480Z,45.30
2018-10-05T15:57:34.136Z,45.60
2018-10-05T16:00:08.391Z,45.80
2018-10-05T16:02:38.904Z,46.40
2018-10-05T16:05:07.638Z,47.00
2018-10-05T16:07:36.495Z,47.20
2018-10-05T16:10:06.494Z,46.90
2018-10-05T16:12:36.196Z,47.30
2018-10-05T16:15:05.806Z,47.60
2018-10-05T16:17:35.565Z,47.80
2018-10-05T16:20:05.349Z,47.70
2018-10-05T16:22:33.997Z,47.90
2018-10-05T16:25:58.386Z,48.30
2018-10-05T16:28:27.032Z,48.50
2018-10-05T16:30:55.836Z,48.60
2018-10-05T16:36:30.482Z,49.10
2018-10-05T16:38:59.431Z,49.30
2018-10-05T16:41:28.016Z,49.70
2018-10-05T16:43:56.794Z,49.70
2018-10-05T16:46:25.437Z,50.00
2018-10-05T16:48:54.052Z,50.50
2018-10-05T16:51:22.950Z,50.80
2018-10-05T16:53:51.541Z,51.10
2018-10-05T16:56:20.057Z,51.20
2018-10-05T16:58:49.413Z,51.20
2018-10-05T17:01:18.816Z,51.20
2018-10-05T17:03:47.642Z,51.20
2018-10-05T17:06:16.260Z,51.40
2018-10-05T17:08:47.945Z,51.60
2018-10-05T17:11:16.614Z,51.80
2018-10-05T17:16:36.829Z,52.10
2018-10-05T17:21:55.103Z,52.00
2018-10-05T17:24:39.998Z,52.70
2018-10-05T17:27:28.404Z,53.00
2018-10-05T18:46:04.428Z,53.40
2018-10-05T18:48:32.956Z,57.50
2018-10-05T18:51:01.498Z,57.50
2018-10-05T18:53:30.645Z,57.60
2018-10-05T18:56:11.315Z,57.50
2018-10-05T18:58:39.812Z,57.70
2018-10-05T19:01:08.451Z,57.60
2018-10-05T19:03:41.273Z,57.40
2018-10-05T19:06:10.161Z,57.80
2018-10-05T19:08:38.678Z,57.90
2018-10-05T19:11:07.251Z,57.40
2018-10-05T19:13:35.854Z,57.80
2018-10-05T19:18:57.507Z,58.30
2018-10-05T19:21:26.049Z,58.10
2018-10-05T19:23:55.182Z,58.30
2018-10-05T19:26:23.803Z,58.70
2018-10-05T19:28:52.322Z,58.80
2018-10-05T19:31:21.141Z,58.70
2018-10-05T19:33:51.440Z,58.30
2018-10-05T19:36:44.042Z,58.70
2018-10-05T19:42:05.028Z,58.60
2018-10-05T19:44:34.133Z,59.00
2018-10-05T19:47:33.666Z,59.10
2018-10-05T19:50:02.260Z,59.00
2018-10-05T19:52:32.478Z,59.10
2018-10-05T19:55:01.841Z,59.00
2018-10-05T19:58:15.217Z,59.10
2018-10-05T20:00:43.887Z,59.10
2018-10-05T20:03:12.825Z,59.00
2018-10-05T20:05:42.090Z,59.30
2018-10-05T20:08:10.740Z,59.30
2018-10-05T20:10:39.958Z,59.50
2018-10-05T20:13:08.452Z,59.20
2018-10-05T20:15:37.034Z,59.50
2018-10-05T20:18:05.818Z,59.60
2018-10-05T20:20:34.219Z,59.40
2018-10-05T20:23:02.906Z,59.70
2018-10-05T20:25:32.160Z,60.40
2018-10-05T20:28:03.724Z,60.10
2018-10-05T20:30:32.305Z,60.40
2018-10-05T20:33:03.912Z,60.30
2018-10-05T20:35:32.583Z,60.60
2018-10-05T20:38:02.175Z,60.90
2018-10-05T20:40:38.771Z,60.50
2018-10-05T20:43:07.287Z,61.10
2018-10-05T20:45:36.642Z,61.00
2018-10-05T20:48:05.256Z,60.60
2018-10-05T20:50:33.845Z,61.40
2018-10-05T20:53:02.656Z,61.40
2018-10-05T20:55:31.337Z,61.50
2018-10-05T20:58:00.638Z,61.40
2018-10-05T21:00:29.265Z,61.30
2018-10-05T21:02:57.884Z,61.30
2018-10-05T21:05:26.376Z,61.10
2018-10-05T21:07:55.641Z,61.40
2018-10-05T21:10:26.044Z,61.90
2018-10-05T21:12:54.732Z,61.80
2018-10-05T21:15:23.870Z,62.30
2018-10-05T21:17:52.528Z,62.50
2018-10-05T21:20:21.753Z,62.30
2018-10-05T21:22:50.633Z,62.50
2018-10-05T21:25:19.236Z,62.80
2018-10-05T21:27:48.752Z,63.30
2018-10-05T21:30:17.429Z,63.40
2018-10-05T21:32:46.129Z,63.10
2018-10-05T21:38:08.117Z,63.10
2018-10-05T21:41:00.186Z,63.20
2018-10-05T21:43:28.949Z,63.40
2018-10-05T21:45:58.626Z,63.60
2018-10-05T21:48:32.289Z,63.40
2018-10-05T21:51:04.709Z,63.70
2018-10-05T21:53:50.368Z,63.40
2018-10-05T21:56:42.798Z,63.70
2018-10-05T21:59:11.580Z,64.00
2018-10-05T22:01:40.294Z,64.10
2018-10-05T22:04:09.185Z,64.00
2018-10-05T22:08:32.886Z,64.00
2018-10-05T22:16:52.534Z,63.60
2018-10-05T22:19:24.251Z,63.70
2018-10-05T22:21:52.876Z,63.60
2018-10-05T22:45:21.430Z,64.00
2018-10-05T22:47:54.710Z,64.00
2018-10-05T22:50:23.504Z,63.90
2018-10-05T22:52:54.164Z,64.10
2018-10-05T22:55:22.842Z,64.30
2018-10-05T22:57:52.562Z,64.20
2018-10-05T23:03:13.930Z,64.50
2018-10-05T23:05:42.668Z,64.60
2018-10-05T23:08:11.152Z,64.60
2018-10-05T23:10:39.650Z,65.20
2018-10-05T23:13:09.276Z,65.30
2018-10-05T23:15:37.788Z,65.10
2018-10-05T23:18:06.401Z,65.20
2018-10-05T23:20:35.104Z,65.30
2018-10-05T23:23:03.751Z,65.70
2018-10-05T23:25:33.778Z,65.50
2018-10-05T23:28:02.365Z,66.00
2018-10-05T23:30:30.851Z,65.80
2018-10-05T23:32:59.434Z,66.00
2018-10-05T23:35:28.539Z,66.10
2018-10-05T23:37:57.057Z,66.20
2018-10-05T23:40:25.629Z,66.40
2018-10-05T23:42:54.183Z,66.30
2018-10-05T23:45:22.762Z,66.40
2018-10-05T23:47:51.278Z,66.40
2018-10-05T23:50:19.865Z,66.10
2018-10-05T23:52:50.241Z,66.10
2018-10-05T23:55:18.934Z,66.60
2018-10-05T23:57:47.996Z,66.60
